Detall de PIREP

Printer-friendly versionPDF version

[2012/12/26 09:07:00]
Flight IATA:CT1004
Pilot Number:012
Company ICAO:CAT
Aircraft Type:MD11/E
PAX:0
Aircraft Registration:CARGO
Departing Airport: LEBL
Destination Airport: EDDF
Alternate Airport:EDDK
Online: VATSIM
Route:OKABI UN861 FISTO UY156 ADABI UN858 VALEK UM163 DIK UT856 ADUSU T856 UNEPI T180 RASVO T180 UNOKO
Flight Level:F400
No Slew and time accel
No pause
Crash detect
Detect pilot in Cockpit between each 30 and 45 minutes
09:07 Zero fuel Weight: 383394 Lbs, Fuel Weight: 53809 Lbs
09:07 VATSIM:LEBL 260830Z 33007G18KT 280V350 9999 FEW025 12/07 Q1020 NOSIG
09:07 VATSIM:EDDF 260820Z 20011KT 9999 BKN027 BKN042 08/05 Q1010 NOSIG
09:07 VOICE CATALONIAN / X-MAS CHARTER
09:11 Parking Brakes off
09:19 Take-off
09:19 Take off Weight: 435373 Lbs
09:19 Wind: 000º @ 000 Knots Heading: 245º
09:19 POS N41º 17´ 12´´ E002º 05´ 13´´
09:19 Gear Up: 197 Knots
09:19 Flaps:3 at 197 Knots
09:20 Flaps:2 at 219 Knots
09:20 Flaps:3 at 218 Knots
09:20 Flaps:2 at 217 Knots
09:20 Flaps:1 at 216 Knots
09:20 Flaps:0 at 215 Knots
09:20 Flaps:1 at 216 Knots
09:20 Flaps:0 at 217 Knots
09:34 Wind:000º@000 Knots Heading: 353º Ground Speed: 476 Knots Altitude 36646 ft
09:38 TOC
09:38 Fuel Weight: 41836 Lb
09:49 Wind:000º@000 Knots Heading: 344º Ground Speed: 475 Knots Altitude 39996 ft
10:04 Wind:000º@000 Knots Heading: 005º Ground Speed: 475 Knots Altitude 39996 ft
10:19 Wind:000º@000 Knots Heading: 031º Ground Speed: 475 Knots Altitude 39996 ft
10:34 Wind:000º@000 Knots Heading: 076º Ground Speed: 473 Knots Altitude 39996 ft
10:44 TOD
10:44 Fuel Weight: 26756 Lb
10:49 Wind:000º@000 Knots Heading: 025º Ground Speed: 471 Knots Altitude 38999 ft
11:04 Wind:000º@000 Knots Heading: 092º Ground Speed: 312 Knots Altitude 10567 ft
11:04 Flaps:1 at 250 Knots
11:06 Flaps:2 at 244 Knots
11:06 Flaps:3 at 243 Knots
11:07 Flaps:4 at 189 Knots
11:07 Flaps:3 at 188 Knots
11:07 Flaps:4 at 187 Knots
11:07 Flaps:5 at 184 Knots
11:07 Flaps:6 at 182 Knots
11:08 Flaps:7 at 152 Knots
11:08 Gear Down: 146 Knots
11:15 TouchDown:Rate -217 ft/min Speed: 137 Knots
11:16 VATSIM:EDDF 261050Z 22013KT 9999 SCT021 BKN028 08/05 Q1011 NOSIG
11:16 Land
11:16 Wind:000º@000 Knots
11:16 Heading: 250º
11:16 Flight Duration: 01:57
11:16 Landing Weight: 404117 Lbs
11:16 POS N50º 02´ 04´´ E008º 33´ 48´´
11:18 Parking brakes on
11:18 Block to Block Duration: 02:07
11:18 Final Fuel: 20507 Lbls
11:18 Spent Fuel: 33302 Lbls
11:18 Flight Length: 840 NM
11:18 TOD Land Length: 180 NM

Exportar CSV

Powered by Drupal - Modified by Danger4k